Time;durP1;ratioP1;P1;durP2;ratioP2;P2;SDS_P1;SDS_P2;PMS_P1;PMS_P2;Temp;Humidity;BMP_temperature;BMP_pressure;BME280_temperature;BME280_humidity;BME280_pressure;Samples;Min_cycle;Max_cycle;Signal;HPM_P1;HPM_P2
2021/07/26 00:01:29;;;;;;;12.32;11.43;;;;;;;;;;5037564;28;24423;-54
2021/07/26 00:03:54;;;;;;;12.40;11.40;;;;;;;;;;5031004;28;24443;-53
2021/07/26 00:06:19;;;;;;;13.90;12.80;;;;;;;;;;5037133;28;24474;-52
2021/07/26 00:08:44;;;;;;;12.10;11.20;;;;;;;;;;5030995;28;24416;-52
2021/07/26 00:11:10;;;;;;;11.25;10.43;;;;;;;;;;5034382;28;25224;-52
2021/07/26 00:13:36;;;;;;;12.25;11.25;;;;;;;;;;5037547;28;24416;-53
2021/07/26 00:16:01;;;;;;;12.13;11.33;;;;;;;;;;5030138;28;24507;-52
2021/07/26 00:18:27;;;;;;;11.93;11.03;;;;;;;;;;5029085;28;24463;-52
2021/07/26 00:20:52;;;;;;;13.07;12.07;;;;;;;;;;5031041;28;24470;-52
2021/07/26 00:23:17;;;;;;;14.73;13.73;;;;;;;;;;5038820;28;24473;-53
2021/07/26 00:25:42;;;;;;;14.47;13.37;;;;;;;;;;5027445;28;24439;-51
2021/07/26 00:28:08;;;;;;;14.60;13.50;;;;;;;;;;5034751;28;24498;-52
2021/07/26 00:30:34;;;;;;;14.43;13.30;;;;;;;;;;5040307;28;24749;-52
2021/07/26 00:32:59;;;;;;;13.60;12.40;;;;;;;;;;5022763;28;24555;-52
2021/07/26 00:35:24;;;;;;;11.90;11.00;;;;;;;;;;5011082;28;24423;-52
2021/07/26 00:37:49;;;;;;;13.18;12.18;;;;;;;;;;5034804;28;25011;-52
2021/07/26 00:40:15;;;;;;;15.63;14.43;;;;;;;;;;5048108;28;24506;-52
2021/07/26 00:42:40;;;;;;;13.90;12.90;;;;;;;;;;5040731;28;24423;-52
2021/07/26 00:45:05;;;;;;;13.95;12.75;;;;;;;;;;5033280;28;24433;-53
2021/07/26 00:47:30;;;;;;;12.60;11.50;;;;;;;;;;5044872;28;24438;-52
2021/07/26 00:49:56;;;;;;;13.70;12.70;;;;;;;;;;5040283;28;24444;-52
2021/07/26 00:52:22;;;;;;;12.23;11.23;;;;;;;;;;5038412;28;24503;-51
2021/07/26 00:54:47;;;;;;;12.52;11.63;;;;;;;;;;5028223;28;24432;-52
2021/07/26 00:57:12;;;;;;;12.57;11.57;;;;;;;;;;5014851;28;24515;-51
2021/07/26 00:59:37;;;;;;;11.70;10.80;;;;;;;;;;5027387;28;24465;-52
2021/07/26 01:02:03;;;;;;;13.20;12.20;;;;;;;;;;5022953;28;24775;-52
2021/07/26 01:04:28;;;;;;;13.57;12.50;;;;;;;;;;5037041;28;24419;-52
2021/07/26 01:06:54;;;;;;;12.70;11.70;;;;;;;;;;5030997;28;24420;-52
2021/07/26 01:09:19;;;;;;;13.13;12.13;;;;;;;;;;5041026;28;24422;-53
2021/07/26 01:11:44;;;;;;;12.10;11.20;;;;;;;;;;5021501;28;25028;-52
2021/07/26 01:14:10;;;;;;;13.20;12.00;;;;;;;;;;5033127;28;25020;-52
2021/07/26 01:16:36;;;;;;;13.67;12.57;;;;;;;;;;5029285;28;24421;-52
2021/07/26 01:19:01;;;;;;;12.87;11.97;;;;;;;;;;5038370;28;24426;-53
2021/07/26 01:21:27;;;;;;;12.10;11.20;;;;;;;;;;5021231;28;24443;-52
2021/07/26 01:23:52;;;;;;;13.27;12.18;;;;;;;;;;5027829;28;24423;-52
2021/07/26 01:26:18;;;;;;;12.63;11.63;;;;;;;;;;5028580;28;24849;-51
2021/07/26 01:28:45;;;;;;;11.00;10.10;;;;;;;;;;5030356;28;24554;-51
2021/07/26 01:31:11;;;;;;;11.80;10.90;;;;;;;;;;5022892;28;24416;-53
2021/07/26 01:33:36;;;;;;;11.65;10.75;;;;;;;;;;5022842;28;24408;-52
2021/07/26 01:36:02;;;;;;;11.52;10.70;;;;;;;;;;5046939;28;24395;-52
2021/07/26 01:38:27;;;;;;;13.90;12.70;;;;;;;;;;5018318;28;25107;-52
2021/07/26 01:41:01;;;;;;;12.90;11.90;;;;;;;;;;5014637;28;25189;-52
2021/07/26 01:43:32;;;;;;;12.60;11.60;;;;;;;;;;5025159;28;24430;-52
2021/07/26 01:46:00;;;;;;;13.35;12.15;;;;;;;;;;5027580;28;24565;-52
2021/07/26 01:48:38;;;;;;;14.07;12.93;;;;;;;;;;5025753;28;24502;-52
2021/07/26 01:51:10;;;;;;;14.75;13.45;;;;;;;;;;5018111;28;24512;-52
2021/07/26 01:53:35;;;;;;;16.95;15.35;;;;;;;;;;5013601;28;25200;-52
2021/07/26 01:56:01;;;;;;;14.80;13.50;;;;;;;;;;5028043;28;24600;-52
2021/07/26 01:58:26;;;;;;;14.00;12.90;;;;;;;;;;5023558;28;24562;-52
2021/07/26 02:00:51;;;;;;;13.93;12.87;;;;;;;;;;5023749;28;24416;-52
2021/07/26 02:03:16;;;;;;;15.80;14.60;;;;;;;;;;5019687;28;24412;-50
2021/07/26 02:05:41;;;;;;;16.23;14.82;;;;;;;;;;5021349;28;24428;-51
2021/07/26 02:08:07;;;;;;;15.60;14.50;;;;;;;;;;5010609;28;24419;-52
2021/07/26 02:10:32;;;;;;;16.13;14.73;;;;;;;;;;5026130;28;24443;-52
2021/07/26 02:12:57;;;;;;;17.85;16.45;;;;;;;;;;5027251;28;24957;-53
2021/07/26 02:15:23;;;;;;;15.07;13.98;;;;;;;;;;5023505;28;24869;-52
2021/07/26 02:17:48;;;;;;;15.37;14.17;;;;;;;;;;5014526;28;24432;-53
2021/07/26 02:20:13;;;;;;;14.68;13.48;;;;;;;;;;5010774;28;24424;-52
2021/07/26 02:22:38;;;;;;;14.87;13.77;;;;;;;;;;5025212;28;24441;-52
2021/07/26 02:25:04;;;;;;;14.60;13.40;;;;;;;;;;5014058;28;24969;-52
2021/07/26 02:27:29;;;;;;;15.37;14.17;;;;;;;;;;5009008;28;24938;-53
2021/07/26 02:29:54;;;;;;;14.02;12.93;;;;;;;;;;5014358;28;24934;-52
2021/07/26 02:32:19;;;;;;;14.87;13.50;;;;;;;;;;5009860;28;24439;-55
2021/07/26 02:34:44;;;;;;;15.80;14.33;;;;;;;;;;5024743;28;24412;-53
2021/07/26 02:37:09;;;;;;;15.35;14.05;;;;;;;;;;5020351;28;24774;-53
2021/07/26 02:39:34;;;;;;;16.52;15.10;;;;;;;;;;5040502;28;24415;-53
2021/07/26 02:42:00;;;;;;;16.90;15.40;;;;;;;;;;5023998;28;24496;-53
2021/07/26 02:44:25;;;;;;;15.43;14.23;;;;;;;;;;5016762;28;24766;-53
2021/07/26 02:46:50;;;;;;;16.23;15.02;;;;;;;;;;5028966;28;24416;-51
2021/07/26 02:49:15;;;;;;;16.27;14.97;;;;;;;;;;5026592;28;24837;-52
2021/07/26 02:51:40;;;;;;;17.00;15.60;;;;;;;;;;5027234;28;24427;-51
2021/07/26 02:54:05;;;;;;;16.83;15.43;;;;;;;;;;5024820;28;24426;-51
2021/07/26 02:56:30;;;;;;;16.48;15.07;;;;;;;;;;5032452;28;24494;-51
2021/07/26 02:58:56;;;;;;;14.60;13.40;;;;;;;;;;5020525;28;24451;-52
2021/07/26 03:01:21;;;;;;;15.95;14.65;;;;;;;;;;5025158;28;24420;-51
2021/07/26 03:03:46;;;;;;;14.60;13.40;;;;;;;;;;5018707;28;25116;-53
2021/07/26 03:06:15;;;;;;;16.38;15.07;;;;;;;;;;5009799;28;24485;-53
2021/07/26 03:08:40;;;;;;;15.40;14.10;;;;;;;;;;5020034;28;25020;-53
2021/07/26 03:11:10;;;;;;;14.20;13.10;;;;;;;;;;5008066;28;24437;-53
2021/07/26 03:13:35;;;;;;;15.07;13.77;;;;;;;;;;5026084;28;24428;-53
2021/07/26 03:16:04;;;;;;;14.65;13.57;;;;;;;;;;5028935;28;25049;-53
2021/07/26 03:18:29;;;;;;;16.00;14.80;;;;;;;;;;5030792;28;24983;-52
2021/07/26 03:20:54;;;;;;;16.67;15.27;;;;;;;;;;5040406;28;25008;-53
2021/07/26 03:23:19;;;;;;;16.10;14.80;;;;;;;;;;5030858;28;24506;-53
2021/07/26 03:25:44;;;;;;;16.17;14.80;;;;;;;;;;5036518;28;24423;-53
2021/07/26 03:28:09;;;;;;;14.10;13.00;;;;;;;;;;5030351;28;24403;-53
2021/07/26 03:30:35;;;;;;;15.93;14.77;;;;;;;;;;5034396;28;25051;-53
2021/07/26 03:33:00;;;;;;;15.20;14.03;;;;;;;;;;5011845;28;24986;-54
2021/07/26 03:35:26;;;;;;;13.77;12.77;;;;;;;;;;5029296;28;24420;-54
2021/07/26 03:37:51;;;;;;;14.10;13.00;;;;;;;;;;5026667;28;24798;-52
2021/07/26 03:40:17;;;;;;;13.80;12.80;;;;;;;;;;5015085;28;24763;-53
2021/07/26 03:42:43;;;;;;;12.95;12.13;;;;;;;;;;5025421;28;24786;-53
2021/07/26 03:45:09;;;;;;;14.50;13.40;;;;;;;;;;5028504;28;24450;-53
2021/07/26 03:47:35;;;;;;;15.98;14.68;;;;;;;;;;5040317;28;24964;-53
2021/07/26 03:50:00;;;;;;;15.10;13.95;;;;;;;;;;5031168;28;24490;-53
2021/07/26 03:52:25;;;;;;;16.40;15.10;;;;;;;;;;5032118;28;24523;-53
2021/07/26 03:54:53;;;;;;;14.20;13.10;;;;;;;;;;5030174;28;24476;-53
2021/07/26 03:57:18;;;;;;;13.98;12.98;;;;;;;;;;5024694;28;24419;-53
2021/07/26 03:59:43;;;;;;;14.10;13.10;;;;;;;;;;5035912;28;24515;-54
2021/07/26 04:02:09;;;;;;;13.20;12.20;;;;;;;;;;5018774;28;24428;-54
2021/07/26 04:04:34;;;;;;;15.17;13.97;;;;;;;;;;5032142;28;24400;-54
2021/07/26 04:07:02;;;;;;;13.02;12.02;;;;;;;;;;5028456;28;24801;-54
2021/07/26 04:09:34;;;;;;;14.00;13.00;;;;;;;;;;5025007;28;24775;-53
2021/07/26 04:12:06;;;;;;;13.50;12.40;;;;;;;;;;5033337;28;24418;-55
2021/07/26 04:14:35;;;;;;;13.20;12.30;;;;;;;;;;5030911;28;24463;-53
2021/07/26 04:17:00;;;;;;;13.18;12.27;;;;;;;;;;5012240;28;24414;-54
2021/07/26 04:19:25;;;;;;;13.70;12.60;;;;;;;;;;5006898;28;24392;-54
2021/07/26 04:21:54;;;;;;;14.45;13.40;;;;;;;;;;5025333;28;24411;-54
2021/07/26 04:24:19;;;;;;;14.85;13.80;;;;;;;;;;5031818;28;24424;-53
2021/07/26 04:26:45;;;;;;;14.98;13.90;;;;;;;;;;5034638;28;24415;-53
2021/07/26 04:29:12;;;;;;;10.90;10.20;;;;;;;;;;5029073;28;24443;-53
2021/07/26 04:31:37;;;;;;;10.23;9.50;;;;;;;;;;5028562;28;24417;-53
2021/07/26 04:34:02;;;;;;;10.53;9.83;;;;;;;;;;5023571;28;24482;-54
2021/07/26 04:36:27;;;;;;;10.10;9.40;;;;;;;;;;5018868;28;24496;-54
2021/07/26 04:38:52;;;;;;;10.68;9.98;;;;;;;;;;5037924;28;24457;-53
2021/07/26 04:41:17;;;;;;;9.70;9.00;;;;;;;;;;5034929;28;24958;-53
2021/07/26 04:43:42;;;;;;;11.73;10.82;;;;;;;;;;5035433;28;24435;-53
2021/07/26 04:46:09;;;;;;;9.15;8.55;;;;;;;;;;5026099;28;24429;-53
2021/07/26 04:48:34;;;;;;;10.18;9.38;;;;;;;;;;5021751;28;24959;-53
2021/07/26 04:50:59;;;;;;;10.00;9.30;;;;;;;;;;5014796;28;24415;-54
2021/07/26 04:53:24;;;;;;;11.05;10.25;;;;;;;;;;5022691;28;24420;-54
2021/07/26 04:55:50;;;;;;;9.57;8.80;;;;;;;;;;5032167;28;24589;-54
2021/07/26 04:58:15;;;;;;;9.93;9.23;;;;;;;;;;5028592;28;24418;-54
2021/07/26 05:00:40;;;;;;;9.50;8.80;;;;;;;;;;5039978;28;24470;-54
2021/07/26 05:03:08;;;;;;;10.10;9.40;;;;;;;;;;5031227;28;24431;-53
2021/07/26 05:05:37;;;;;;;11.15;10.35;;;;;;;;;;5032193;28;25343;-54
2021/07/26 05:08:02;;;;;;;9.77;9.07;;;;;;;;;;5027566;28;24981;-53
2021/07/26 05:10:27;;;;;;;12.23;11.23;;;;;;;;;;5037609;28;24473;-53
2021/07/26 05:12:52;;;;;;;12.02;11.13;;;;;;;;;;5034070;28;24454;-53
2021/07/26 05:15:17;;;;;;;12.63;11.63;;;;;;;;;;5030437;28;24427;-54
2021/07/26 05:17:43;;;;;;;13.35;12.25;;;;;;;;;;5022258;28;24413;-54
2021/07/26 05:20:08;;;;;;;11.20;10.40;;;;;;;;;;5007222;28;24435;-54
2021/07/26 05:22:33;;;;;;;11.80;11.00;;;;;;;;;;5008707;28;24475;-54
2021/07/26 05:24:58;;;;;;;12.02;11.00;;;;;;;;;;5017724;28;24429;-54
2021/07/26 05:27:28;;;;;;;10.57;9.68;;;;;;;;;;5011157;28;24431;-54
2021/07/26 05:29:53;;;;;;;8.45;7.88;;;;;;;;;;5032126;28;24505;-54
2021/07/26 05:32:18;;;;;;;10.57;9.77;;;;;;;;;;5030287;28;24502;-54
2021/07/26 05:34:45;;;;;;;9.40;8.80;;;;;;;;;;5019888;28;24420;-54
2021/07/26 05:37:11;;;;;;;10.90;10.13;;;;;;;;;;5028054;28;24424;-55
2021/07/26 05:39:36;;;;;;;10.30;9.60;;;;;;;;;;5025858;28;24408;-54
2021/07/26 05:42:01;;;;;;;10.75;10.05;;;;;;;;;;5032480;28;24411;-55
2021/07/26 05:44:27;;;;;;;11.40;10.60;;;;;;;;;;5027306;28;25192;-54
2021/07/26 05:46:53;;;;;;;11.50;10.60;;;;;;;;;;5018246;28;24502;-55
2021/07/26 05:49:18;;;;;;;11.02;10.13;;;;;;;;;;5036122;28;25159;-55
2021/07/26 05:51:43;;;;;;;10.30;9.50;;;;;;;;;;5026661;28;24502;-56
2021/07/26 05:54:08;;;;;;;11.43;10.63;;;;;;;;;;5035866;28;24489;-54
2021/07/26 05:56:40;;;;;;;10.82;10.02;;;;;;;;;;5026943;28;24415;-55
2021/07/26 05:59:05;;;;;;;10.10;9.48;;;;;;;;;;5031240;28;24449;-54
2021/07/26 06:01:49;;;;;;;11.10;10.40;;;;;;;;;;5030398;28;24450;-54
2021/07/26 06:04:15;;;;;;;10.50;9.80;;;;;;;;;;5028244;28;24408;-54
2021/07/26 06:06:41;;;;;;;11.23;10.52;;;;;;;;;;5018811;28;24439;-54
2021/07/26 06:09:07;;;;;;;11.27;10.48;;;;;;;;;;5019855;28;24427;-55
2021/07/26 06:11:32;;;;;;;10.90;10.00;;;;;;;;;;5023074;28;24945;-54
2021/07/26 06:13:57;;;;;;;10.82;10.02;;;;;;;;;;5023304;28;24467;-55
2021/07/26 06:16:22;;;;;;;11.10;10.40;;;;;;;;;;5015291;28;24493;-55
2021/07/26 06:18:47;;;;;;;12.00;11.10;;;;;;;;;;5023232;28;24447;-55
2021/07/26 06:21:12;;;;;;;10.70;9.90;;;;;;;;;;5029092;28;24416;-54
2021/07/26 06:23:38;;;;;;;11.00;10.20;;;;;;;;;;5024358;28;24524;-54
2021/07/26 06:26:07;;;;;;;10.80;9.90;;;;;;;;;;5025854;28;24443;-56
2021/07/26 06:28:32;;;;;;;10.40;9.70;;;;;;;;;;5033831;28;24407;-54
2021/07/26 06:30:58;;;;;;;10.40;9.60;;;;;;;;;;5036252;28;24473;-55
2021/07/26 06:33:23;;;;;;;13.03;12.13;;;;;;;;;;5017275;28;24507;-54
2021/07/26 06:35:48;;;;;;;10.75;10.05;;;;;;;;;;5018730;28;24417;-54
2021/07/26 06:38:14;;;;;;;10.48;9.77;;;;;;;;;;5021820;28;24423;-54
2021/07/26 06:40:42;;;;;;;10.95;10.25;;;;;;;;;;5035060;28;24442;-54
2021/07/26 06:43:07;;;;;;;9.93;9.23;;;;;;;;;;5012107;28;24420;-54
2021/07/26 06:45:32;;;;;;;10.20;9.50;;;;;;;;;;5039186;28;24789;-55
2021/07/26 06:47:58;;;;;;;12.10;11.10;;;;;;;;;;5023925;28;24489;-55
2021/07/26 06:50:23;;;;;;;10.73;10.03;;;;;;;;;;5006814;28;24767;-55
2021/07/26 06:52:48;;;;;;;11.32;10.43;;;;;;;;;;5042861;28;24964;-55
2021/07/26 06:55:13;;;;;;;10.30;9.57;;;;;;;;;;5020375;28;24447;-54
2021/07/26 06:57:38;;;;;;;11.03;10.23;;;;;;;;;;5008866;28;24508;-55
2021/07/26 07:00:04;;;;;;;11.37;10.47;;;;;;;;;;5035978;28;24485;-54
2021/07/26 07:02:29;;;;;;;11.70;10.80;;;;;;;;;;5028957;28;24884;-54
2021/07/26 07:04:54;;;;;;;10.80;9.90;;;;;;;;;;5028388;28;24430;-55
2021/07/26 07:07:19;;;;;;;11.32;10.52;;;;;;;;;;5015361;28;24421;-55
2021/07/26 07:09:45;;;;;;;10.40;9.60;;;;;;;;;;5039491;28;24423;-55
2021/07/26 07:12:10;;;;;;;11.35;10.65;;;;;;;;;;5020763;28;24420;-56
2021/07/26 07:14:35;;;;;;;11.60;10.70;;;;;;;;;;5048234;28;24854;-56
2021/07/26 07:17:01;;;;;;;11.40;10.60;;;;;;;;;;5042134;28;24407;-53
2021/07/26 07:19:26;;;;;;;11.00;10.20;;;;;;;;;;5028747;28;24415;-54
2021/07/26 07:21:51;;;;;;;14.00;13.00;;;;;;;;;;5009496;28;24436;-54
2021/07/26 07:24:16;;;;;;;11.50;10.50;;;;;;;;;;5024090;28;24574;-54
2021/07/26 07:26:41;;;;;;;12.00;11.00;;;;;;;;;;5019770;28;24486;-54
2021/07/26 07:29:06;;;;;;;13.90;12.80;;;;;;;;;;5027406;28;24405;-54
2021/07/26 07:31:37;;;;;;;10.65;9.85;;;;;;;;;;5030506;28;24996;-54
2021/07/26 07:34:02;;;;;;;11.98;11.07;;;;;;;;;;5031022;28;24466;-54
2021/07/26 07:36:27;;;;;;;11.50;10.60;;;;;;;;;;5020460;28;24428;-55
2021/07/26 07:38:54;;;;;;;11.20;10.30;;;;;;;;;;5012732;28;24423;-54
2021/07/26 07:41:19;;;;;;;10.95;10.15;;;;;;;;;;5019069;28;25063;-54
2021/07/26 07:43:45;;;;;;;10.77;9.88;;;;;;;;;;5029761;28;24518;-55
2021/07/26 07:46:10;;;;;;;10.23;9.45;;;;;;;;;;5039644;28;24789;-54
2021/07/26 07:48:35;;;;;;;10.03;9.33;;;;;;;;;;5031126;28;24842;-53
2021/07/26 07:51:02;;;;;;;10.47;9.67;;;;;;;;;;5024336;28;24503;-54
2021/07/26 07:53:27;;;;;;;10.85;9.95;;;;;;;;;;5014028;28;24496;-53
2021/07/26 07:55:52;;;;;;;10.40;9.53;;;;;;;;;;5026592;28;24520;-54
2021/07/26 07:58:18;;;;;;;9.80;9.10;;;;;;;;;;5008085;28;24389;-54
2021/07/26 08:00:49;;;;;;;10.35;9.55;;;;;;;;;;5019510;28;24501;-54
2021/07/26 08:03:14;;;;;;;11.40;10.50;;;;;;;;;;5041277;28;24408;-54
2021/07/26 08:05:39;;;;;;;10.63;9.30;;;;;;;;;;5027185;28;24423;-55
2021/07/26 08:08:04;;;;;;;10.20;9.50;;;;;;;;;;5033003;28;24403;-54
2021/07/26 08:10:29;;;;;;;9.55;8.95;;;;;;;;;;5035108;28;24522;-54
2021/07/26 08:12:54;;;;;;;9.88;9.18;;;;;;;;;;5029257;28;24508;-54
2021/07/26 08:15:20;;;;;;;11.20;10.40;;;;;;;;;;5026923;28;24420;-54
2021/07/26 08:17:46;;;;;;;10.40;9.70;;;;;;;;;;5032973;28;24979;-53
2021/07/26 08:20:13;;;;;;;8.70;8.10;;;;;;;;;;5037265;28;24979;-53
2021/07/26 08:22:38;;;;;;;9.70;9.00;;;;;;;;;;5015201;28;24520;-53
2021/07/26 08:25:04;;;;;;;10.52;9.82;;;;;;;;;;5011047;28;24531;-53
2021/07/26 08:27:30;;;;;;;11.15;10.25;;;;;;;;;;5032974;28;24489;-53
2021/07/26 08:29:55;;;;;;;10.90;10.10;;;;;;;;;;5038475;28;24416;-53
2021/07/26 08:32:20;;;;;;;10.37;9.57;;;;;;;;;;5036726;28;24466;-54
2021/07/26 08:34:45;;;;;;;9.68;8.88;;;;;;;;;;5023309;28;24411;-54
2021/07/26 08:37:10;;;;;;;10.40;9.65;;;;;;;;;;5027401;28;24459;-55
2021/07/26 08:39:38;;;;;;;10.30;9.50;;;;;;;;;;5026913;28;25007;-55
2021/07/26 08:42:03;;;;;;;10.93;10.13;;;;;;;;;;5009224;28;24494;-55
2021/07/26 08:44:28;;;;;;;11.73;10.70;;;;;;;;;;5035984;28;24970;-54
2021/07/26 08:46:55;;;;;;;10.83;10.03;;;;;;;;;;5031058;28;24429;-54
2021/07/26 08:49:22;;;;;;;10.40;9.60;;;;;;;;;;5030142;28;24428;-55
2021/07/26 08:51:47;;;;;;;10.00;9.30;;;;;;;;;;5029437;28;24490;-54
2021/07/26 08:54:13;;;;;;;10.40;9.70;;;;;;;;;;5030363;28;24497;-54
2021/07/26 08:56:39;;;;;;;11.20;10.40;;;;;;;;;;5030225;28;25036;-54
2021/07/26 08:59:04;;;;;;;11.00;10.27;;;;;;;;;;5030588;28;24781;-54
2021/07/26 09:01:30;;;;;;;11.30;10.40;;;;;;;;;;5030447;28;24980;-53
2021/07/26 09:03:56;;;;;;;9.50;8.90;;;;;;;;;;5029290;28;24502;-54
2021/07/26 09:06:21;;;;;;;10.60;9.80;;;;;;;;;;5029695;28;24446;-54
2021/07/26 09:08:46;;;;;;;9.30;8.70;;;;;;;;;;5029987;28;24929;-54
2021/07/26 09:11:11;;;;;;;9.70;8.90;;;;;;;;;;5030223;28;24388;-56
2021/07/26 09:13:39;;;;;;;11.30;10.50;;;;;;;;;;5028316;28;24474;-54
2021/07/26 09:16:20;;;;;;;10.77;9.98;;;;;;;;;;5030103;28;24491;-54
2021/07/26 09:18:46;;;;;;;10.65;9.95;;;;;;;;;;5029349;28;24399;-54
2021/07/26 09:21:12;;;;;;;12.20;11.10;;;;;;;;;;5022410;28;24408;-54
2021/07/26 09:23:57;;;;;;;10.73;9.90;;;;;;;;;;5009875;28;24523;-54
2021/07/26 09:26:26;;;;;;;9.80;9.10;;;;;;;;;;5009940;28;24854;-55
2021/07/26 09:28:51;;;;;;;10.30;9.50;;;;;;;;;;5008706;28;24802;-54
2021/07/26 09:31:16;;;;;;;10.23;9.43;;;;;;;;;;5013426;28;25035;-54
2021/07/26 09:33:42;;;;;;;10.87;9.97;;;;;;;;;;5028985;28;24388;-54
2021/07/26 09:36:09;;;;;;;9.10;8.40;;;;;;;;;;5029841;28;24471;-54
2021/07/26 09:38:35;;;;;;;9.93;9.23;;;;;;;;;;5028158;28;24400;-55
2021/07/26 09:41:01;;;;;;;10.30;9.50;;;;;;;;;;5029395;28;24398;-55
2021/07/26 09:43:27;;;;;;;10.73;10.00;;;;;;;;;;5026391;28;24766;-54
2021/07/26 09:45:54;;;;;;;10.00;9.30;;;;;;;;;;5028065;28;25000;-54
2021/07/26 09:48:21;;;;;;;10.60;9.80;;;;;;;;;;5027010;28;24424;-54
2021/07/26 09:50:47;;;;;;;9.18;8.57;;;;;;;;;;5028977;28;24438;-55
2021/07/26 09:53:13;;;;;;;8.82;8.23;;;;;;;;;;5017944;28;24762;-55
2021/07/26 09:55:41;;;;;;;10.17;9.33;;;;;;;;;;5009271;28;24476;-55
2021/07/26 09:58:06;;;;;;;10.77;9.98;;;;;;;;;;5009183;28;24554;-55
2021/07/26 10:00:32;;;;;;;10.87;9.87;;;;;;;;;;5009094;28;25029;-54
2021/07/26 10:02:57;;;;;;;9.97;9.27;;;;;;;;;;5013806;28;25024;-54
2021/07/26 10:05:23;;;;;;;9.30;8.60;;;;;;;;;;5028604;28;24427;-54
2021/07/26 10:07:52;;;;;;;9.95;9.20;;;;;;;;;;5028694;28;24449;-54
2021/07/26 10:10:17;;;;;;;10.13;9.43;;;;;;;;;;5028812;28;24395;-54
2021/07/26 10:12:44;;;;;;;9.33;8.73;;;;;;;;;;5027494;28;24503;-55
2021/07/26 10:15:09;;;;;;;8.90;8.30;;;;;;;;;;5026137;28;24440;-54
2021/07/26 10:17:34;;;;;;;8.80;8.10;;;;;;;;;;5028570;28;24427;-54
2021/07/26 10:19:59;;;;;;;9.70;9.00;;;;;;;;;;5028588;28;24951;-54
2021/07/26 10:22:26;;;;;;;10.50;9.70;;;;;;;;;;5028905;28;24446;-54
2021/07/26 10:24:54;;;;;;;8.77;8.07;;;;;;;;;;5026293;28;24439;-54
2021/07/26 10:27:27;;;;;;;8.35;7.75;;;;;;;;;;5028681;28;24407;-54
2021/07/26 10:29:52;;;;;;;8.68;7.95;;;;;;;;;;5027957;28;24984;-54
2021/07/26 10:32:30;;;;;;;7.90;7.40;;;;;;;;;;5028409;28;24396;-55
2021/07/26 10:34:55;;;;;;;8.38;7.82;;;;;;;;;;5008817;28;24424;-54
2021/07/26 10:37:38;;;;;;;8.50;7.87;;;;;;;;;;5008791;28;24409;-54
2021/07/26 10:40:22;;;;;;;7.90;7.40;;;;;;;;;;5007822;28;24955;-54
2021/07/26 10:42:52;;;;;;;7.70;7.20;;;;;;;;;;5008127;28;24977;-55
2021/07/26 10:45:35;;;;;;;7.63;7.13;;;;;;;;;;5026616;28;24848;-54
2021/07/26 10:48:19;;;;;;;8.55;7.85;;;;;;;;;;5027747;28;24953;-54
2021/07/26 10:50:45;;;;;;;8.73;8.13;;;;;;;;;;5027875;28;24384;-55
2021/07/26 10:53:10;;;;;;;6.97;6.57;;;;;;;;;;5028084;28;24407;-55
2021/07/26 10:55:58;;;;;;;8.07;7.47;;;;;;;;;;5027012;28;24941;-55
2021/07/26 10:58:38;;;;;;;7.20;6.70;;;;;;;;;;5027898;28;24873;-55
2021/07/26 11:01:18;;;;;;;6.60;6.20;;;;;;;;;;5027242;28;24473;-55
2021/07/26 11:03:44;;;;;;;7.40;6.90;;;;;;;;;;5028956;28;24424;-54
2021/07/26 11:06:09;;;;;;;8.15;7.55;;;;;;;;;;5026877;28;24488;-55
2021/07/26 11:08:34;;;;;;;8.18;7.57;;;;;;;;;;5021993;28;24442;-55
2021/07/26 11:11:00;;;;;;;7.60;7.10;;;;;;;;;;5021194;28;24452;-54
2021/07/26 11:13:48;;;;;;;6.80;6.40;;;;;;;;;;5023579;28;24493;-54
2021/07/26 11:16:14;;;;;;;6.60;6.20;;;;;;;;;;5033768;28;24426;-54
2021/07/26 11:18:39;;;;;;;7.43;6.93;;;;;;;;;;5034135;28;24438;-54
2021/07/26 11:21:06;;;;;;;7.30;6.80;;;;;;;;;;5021514;28;24476;-54
2021/07/26 11:23:51;;;;;;;6.80;6.40;;;;;;;;;;5045476;28;24449;-53
2021/07/26 11:26:18;;;;;;;7.47;6.88;;;;;;;;;;5022351;28;25243;-53
2021/07/26 11:28:43;;;;;;;6.80;6.30;;;;;;;;;;5024404;28;24444;-54
2021/07/26 11:31:08;;;;;;;7.70;7.10;;;;;;;;;;5015442;28;24502;-55
2021/07/26 11:33:33;;;;;;;7.83;7.23;;;;;;;;;;5024419;28;24582;-54
2021/07/26 11:36:04;;;;;;;7.70;7.10;;;;;;;;;;5021049;28;24973;-55
2021/07/26 11:38:29;;;;;;;7.35;6.85;;;;;;;;;;5008742;28;24415;-55
2021/07/26 11:40:55;;;;;;;6.40;6.00;;;;;;;;;;5015213;28;25011;-55
2021/07/26 11:43:42;;;;;;;6.13;5.72;;;;;;;;;;5009011;28;24412;-55
2021/07/26 11:46:07;;;;;;;7.05;6.45;;;;;;;;;;5016913;28;24655;-55
2021/07/26 11:48:32;;;;;;;6.80;6.30;;;;;;;;;;5006471;28;24641;-55
2021/07/26 11:50:57;;;;;;;6.90;6.30;;;;;;;;;;5034725;28;24407;-55
2021/07/26 11:53:27;;;;;;;7.10;6.60;;;;;;;;;;5028990;28;24422;-55
2021/07/26 11:55:52;;;;;;;6.75;6.28;;;;;;;;;;5027522;28;24419;-55
2021/07/26 11:58:23;;;;;;;7.00;6.50;;;;;;;;;;5037279;28;24482;-55
2021/07/26 12:00:49;;;;;;;6.45;6.05;;;;;;;;;;5027827;28;24408;-55
2021/07/26 12:03:16;;;;;;;6.07;5.57;;;;;;;;;;5018529;28;24427;-55
2021/07/26 12:05:42;;;;;;;6.43;6.03;;;;;;;;;;5024853;28;24433;-55
2021/07/26 12:08:11;;;;;;;6.60;6.10;;;;;;;;;;5007563;28;24475;-54
2021/07/26 12:10:37;;;;;;;7.07;6.57;;;;;;;;;;5026376;28;24466;-54
2021/07/26 12:13:13;;;;;;;6.87;6.37;;;;;;;;;;5007495;28;24417;-54
2021/07/26 12:15:40;;;;;;;6.30;5.90;;;;;;;;;;5026471;28;24466;-54
2021/07/26 12:18:06;;;;;;;7.07;6.57;;;;;;;;;;5031393;28;24442;-54
2021/07/26 12:20:36;;;;;;;7.00;6.50;;;;;;;;;;5035869;28;24407;-54
2021/07/26 12:23:13;;;;;;;5.83;5.43;;;;;;;;;;5031299;28;24426;-54
2021/07/26 12:25:42;;;;;;;6.70;6.30;;;;;;;;;;5043961;28;24426;-54
2021/07/26 12:28:07;;;;;;;6.70;6.20;;;;;;;;;;5033684;28;24405;-54
2021/07/26 12:30:34;;;;;;;6.60;6.20;;;;;;;;;;5026475;28;24507;-54
2021/07/26 12:32:59;;;;;;;6.80;6.20;;;;;;;;;;5025790;28;24400;-54
2021/07/26 12:35:25;;;;;;;6.00;5.60;;;;;;;;;;5026507;28;24445;-53
2021/07/26 12:38:07;;;;;;;6.10;5.70;;;;;;;;;;5024862;28;24415;-54
2021/07/26 12:40:33;;;;;;;6.00;5.60;;;;;;;;;;5026422;28;24493;-54
2021/07/26 12:43:05;;;;;;;5.75;5.35;;;;;;;;;;5026463;28;24841;-54
2021/07/26 12:45:30;;;;;;;5.93;5.53;;;;;;;;;;5025995;28;24510;-54
2021/07/26 12:47:56;;;;;;;5.53;5.20;;;;;;;;;;5026457;28;24507;-58
2021/07/26 12:50:22;;;;;;;4.93;4.63;;;;;;;;;;5008276;28;24504;-55
2021/07/26 12:52:47;;;;;;;4.60;4.30;;;;;;;;;;5006559;28;24424;-54
2021/07/26 12:55:18;;;;;;;4.40;4.10;;;;;;;;;;5006213;28;24388;-54
2021/07/26 12:57:43;;;;;;;5.38;5.07;;;;;;;;;;5006141;28;24479;-54
2021/07/26 13:00:09;;;;;;;6.73;6.13;;;;;;;;;;5017672;28;24490;-54
2021/07/26 13:02:35;;;;;;;6.75;6.25;;;;;;;;;;5026799;28;24878;-54
2021/07/26 13:05:02;;;;;;;6.97;6.30;;;;;;;;;;5028520;28;24465;-54
2021/07/26 13:07:27;;;;;;;7.35;6.85;;;;;;;;;;5029722;28;24406;-55
2021/07/26 13:09:52;;;;;;;6.30;5.80;;;;;;;;;;5028046;28;24407;-55
2021/07/26 13:12:17;;;;;;;6.40;5.90;;;;;;;;;;5029437;28;24774;-54
2021/07/26 13:14:42;;;;;;;6.27;5.87;;;;;;;;;;5029393;28;24384;-54
2021/07/26 13:17:07;;;;;;;6.00;5.60;;;;;;;;;;5029460;28;24380;-54
2021/07/26 13:19:33;;;;;;;6.70;6.20;;;;;;;;;;5029704;28;24427;-54
2021/07/26 13:21:58;;;;;;;6.38;5.97;;;;;;;;;;5029567;28;24400;-54
2021/07/26 13:24:23;;;;;;;6.53;6.03;;;;;;;;;;5027781;28;24926;-54
2021/07/26 13:26:48;;;;;;;5.57;5.28;;;;;;;;;;5029766;28;24431;-54
2021/07/26 13:29:13;;;;;;;5.97;5.57;;;;;;;;;;5029172;28;24408;-53
2021/07/26 13:31:39;;;;;;;5.50;5.10;;;;;;;;;;5029773;28;24941;-53
2021/07/26 13:34:05;;;;;;;5.40;5.10;;;;;;;;;;5027476;28;24411;-54
2021/07/26 13:36:30;;;;;;;6.20;5.80;;;;;;;;;;5029613;28;24400;-54
2021/07/26 13:38:55;;;;;;;6.28;5.88;;;;;;;;;;5029407;28;24797;-54
2021/07/26 13:41:21;;;;;;;6.40;5.90;;;;;;;;;;5028423;28;24408;-54
2021/07/26 13:43:46;;;;;;;6.60;6.10;;;;;;;;;;5029117;28;24486;-54
2021/07/26 13:46:12;;;;;;;5.68;5.30;;;;;;;;;;5026725;28;24432;-54
2021/07/26 13:48:37;;;;;;;6.47;5.88;;;;;;;;;;5027156;28;24525;-54
2021/07/26 13:51:02;;;;;;;6.10;5.70;;;;;;;;;;5026424;28;25170;-54
2021/07/26 13:53:27;;;;;;;6.30;5.90;;;;;;;;;;5013786;28;24887;-54
2021/07/26 13:55:52;;;;;;;7.00;6.40;;;;;;;;;;5009125;28;24514;-54
2021/07/26 13:58:19;;;;;;;6.97;6.53;;;;;;;;;;5009309;28;24396;-54
2021/07/26 14:00:44;;;;;;;7.40;6.80;;;;;;;;;;5009069;28;24459;-54
2021/07/26 14:03:09;;;;;;;6.30;5.90;;;;;;;;;;5009386;28;24941;-54
2021/07/26 14:05:34;;;;;;;6.30;5.90;;;;;;;;;;5023913;28;24451;-54
2021/07/26 14:08:00;;;;;;;6.72;6.22;;;;;;;;;;5029013;28;25196;-54
2021/07/26 14:10:25;;;;;;;7.60;7.10;;;;;;;;;;5028896;28;25001;-54
2021/07/26 14:12:50;;;;;;;7.47;6.97;;;;;;;;;;5028409;28;24988;-54
2021/07/26 14:15:15;;;;;;;7.30;6.70;;;;;;;;;;5028222;28;24450;-55
2021/07/26 14:17:41;;;;;;;4.80;4.50;;;;;;;;;;5026607;28;24423;-55
2021/07/26 14:20:08;;;;;;;4.70;4.40;;;;;;;;;;5028488;28;24419;-54
2021/07/26 14:22:33;;;;;;;4.88;4.57;;;;;;;;;;5028651;28;25155;-55
2021/07/26 14:24:58;;;;;;;4.75;4.35;;;;;;;;;;5028271;28;24458;-54